createdAt,value
2023-04-28T00:03:38.594Z,10.60
2023-04-28T00:07:39.904Z,10.37
2023-04-28T00:11:40.939Z,9.97
2023-04-28T00:15:41.875Z,10.47
2023-04-28T00:19:43.077Z,8.67
2023-04-28T00:23:43.989Z,7.63
2023-04-28T00:27:44.934Z,7.43
2023-04-28T00:31:45.897Z,7.73
2023-04-28T00:35:46.960Z,9.13
2023-04-28T00:39:48.118Z,8.60
2023-04-28T00:43:50.203Z,8.83
2023-04-28T00:47:51.371Z,9.33
2023-04-28T00:51:52.296Z,10.23
2023-04-28T00:55:55.552Z,10.43
2023-04-28T00:59:57.080Z,10.50
2023-04-28T01:03:58.343Z,9.80
2023-04-28T01:07:59.872Z,9.10
2023-04-28T01:12:01.145Z,9.87
2023-04-28T01:16:02.349Z,9.00
2023-04-28T01:20:04.095Z,8.90
2023-04-28T01:24:05.942Z,9.17
2023-04-28T01:28:07.499Z,9.03
2023-04-28T01:32:08.573Z,10.13
2023-04-28T01:36:09.636Z,9.17
2023-04-28T01:40:11.713Z,8.57
2023-04-28T01:44:12.734Z,8.80
2023-04-28T01:48:13.808Z,9.23
2023-04-28T01:52:15.087Z,8.67
2023-04-28T01:56:16.020Z,9.13
2023-04-28T02:00:17.710Z,8.40
2023-04-28T02:04:18.944Z,7.80
2023-04-28T02:08:20.230Z,8.67
2023-04-28T02:12:21.343Z,10.27
2023-04-28T02:16:22.316Z,9.13
2023-04-28T02:20:23.251Z,9.27
2023-04-28T02:24:24.332Z,9.97
2023-04-28T02:28:25.254Z,9.57
2023-04-28T02:32:27.371Z,10.40
2023-04-28T02:36:30.096Z,10.13
2023-04-28T02:40:33.932Z,10.70
2023-04-28T02:44:34.961Z,10.77
2023-04-28T02:48:38.149Z,11.00
2023-04-28T02:52:39.101Z,11.93
2023-04-28T02:56:41.846Z,10.43
2023-04-28T03:00:44.697Z,11.07
2023-04-28T03:04:47.484Z,10.93
2023-04-28T03:08:50.062Z,10.23
2023-04-28T03:12:54.608Z,10.30
2023-04-28T03:16:58.549Z,10.03
2023-04-28T03:20:59.520Z,9.27
2023-04-28T03:25:01.824Z,9.27
2023-04-28T03:29:05.066Z,9.00
2023-04-28T03:33:08.400Z,9.63
2023-04-28T03:37:09.303Z,9.53
2023-04-28T03:41:12.152Z,9.97
2023-04-28T03:45:13.074Z,10.20
2023-04-28T03:49:15.197Z,11.40
2023-04-28T03:53:19.643Z,12.67
2023-04-28T03:57:22.191Z,13.83
2023-04-28T04:01:25.910Z,11.53
2023-04-28T04:05:29.086Z,14.83
2023-04-28T04:09:32.036Z,14.80
2023-04-28T04:13:34.662Z,12.33
2023-04-28T04:17:37.694Z,10.63
2023-04-28T04:21:38.661Z,12.27
2023-04-28T04:25:40.884Z,11.67
2023-04-28T04:29:43.530Z,11.83
2023-04-28T04:33:46.905Z,11.70
2023-04-28T04:37:49.432Z,11.63
2023-04-28T04:41:52.025Z,12.93
2023-04-28T04:45:54.550Z,12.43
2023-04-28T04:49:59.223Z,12.73
2023-04-28T04:54:02.124Z,14.50
2023-04-28T04:58:04.556Z,13.40
2023-04-28T05:02:05.515Z,15.07
2023-04-28T05:06:07.748Z,16.07
2023-04-28T05:10:10.959Z,16.60
2023-04-28T05:14:13.732Z,17.10
2023-04-28T05:18:17.294Z,14.50
2023-04-28T05:22:19.663Z,16.60
2023-04-28T05:26:22.308Z,15.43
2023-04-28T05:30:25.195Z,17.53
2023-04-28T05:34:28.013Z,18.63
2023-04-28T05:38:30.985Z,17.23
2023-04-28T05:42:33.341Z,17.40
2023-04-28T05:46:36.278Z,17.40
2023-04-28T05:50:40.797Z,16.73
2023-04-28T05:54:43.464Z,18.00
2023-04-28T05:58:45.913Z,22.43
2023-04-28T06:02:48.487Z,21.57
2023-04-28T06:06:51.806Z,20.87
2023-04-28T06:10:54.305Z,22.00
2023-04-28T06:14:56.883Z,22.37
2023-04-28T06:18:57.858Z,21.13
2023-04-28T06:22:59.912Z,23.30
2023-04-28T06:27:03.782Z,26.63
2023-04-28T06:31:05.086Z,29.57
2023-04-28T06:35:09.760Z,29.90
2023-04-28T06:39:12.282Z,32.90
2023-04-28T06:43:15.178Z,31.40
2023-04-28T06:47:17.704Z,35.73
2023-04-28T06:51:21.717Z,35.33
2023-04-28T06:55:25.923Z,34.70
2023-04-28T06:59:26.917Z,38.60
2023-04-28T07:03:30.015Z,39.37
2023-04-28T07:07:32.541Z,38.60
2023-04-28T07:11:35.091Z,41.13
2023-04-28T07:15:36.069Z,36.47
2023-04-28T07:19:39.246Z,39.40
2023-04-28T07:23:41.131Z,39.93
2023-04-28T07:27:43.544Z,40.07
2023-04-28T07:31:46.046Z,46.23
2023-04-28T07:35:50.558Z,38.47
2023-04-28T07:39:53.007Z,37.90
2023-04-28T07:43:55.453Z,39.27
2023-04-28T07:47:56.442Z,40.70
2023-04-28T07:51:59.220Z,39.17
2023-04-28T07:56:02.464Z,38.43
2023-04-28T08:00:06.471Z,39.60
2023-04-28T08:04:09.226Z,37.93
2023-04-28T08:08:12.785Z,35.43
2023-04-28T08:12:16.291Z,35.90
2023-04-28T08:16:17.782Z,39.00
2023-04-28T08:20:23.160Z,35.90
2023-04-28T08:24:26.457Z,37.90
2023-04-28T08:28:29.188Z,39.20
2023-04-28T08:32:31.924Z,38.77
2023-04-28T08:36:36.584Z,39.30
2023-04-28T08:40:37.850Z,39.77
2023-04-28T08:44:40.886Z,39.27
2023-04-28T08:48:45.905Z,39.97
2023-04-28T08:52:49.412Z,40.17
2023-04-28T08:56:53.111Z,38.30
2023-04-28T09:00:55.964Z,39.47
2023-04-28T09:04:57.183Z,35.03
2023-04-28T09:09:21.085Z,38.70
2023-04-28T09:13:26.653Z,36.00
2023-04-28T09:17:29.403Z,37.30
2023-04-28T09:21:31.335Z,34.03
2023-04-28T09:25:35.592Z,33.43
2023-04-28T09:29:44.384Z,31.77
2023-04-28T09:34:01.236Z,30.20
2023-04-28T09:38:02.187Z,30.77
2023-04-28T09:42:05.467Z,26.80
2023-04-28T09:46:09.226Z,25.80
2023-04-28T09:50:14.046Z,24.27
2023-04-28T09:54:17.736Z,23.30
2023-04-28T09:58:22.378Z,21.50
2023-04-28T10:02:42.669Z,19.90
2023-04-28T10:06:30.651Z,18.07
2023-04-28T10:10:34.346Z,19.13
2023-04-28T10:14:38.901Z,18.17
2023-04-28T10:18:42.453Z,19.30
2023-04-28T10:22:53.650Z,18.73
2023-04-28T10:27:09.093Z,19.10
2023-04-28T10:31:12.002Z,16.67
2023-04-28T10:35:28.889Z,14.53
2023-04-28T10:39:30.078Z,13.67
2023-04-28T10:43:37.371Z,13.27
2023-04-28T10:47:54.277Z,15.33
2023-04-28T10:51:56.173Z,16.60
2023-04-28T10:56:05.231Z,14.63
2023-04-28T11:00:28.930Z,16.13
2023-04-28T11:04:32.857Z,18.07
2023-04-28T11:08:34.069Z,15.60
2023-04-28T11:12:35.264Z,19.80
2023-04-28T11:16:51.476Z,21.17
2023-04-28T11:20:56.451Z,22.87
2023-04-28T11:25:01.049Z,24.27
2023-04-28T11:29:01.989Z,26.07
2023-04-28T11:33:03.548Z,26.60
2023-04-28T11:37:06.448Z,30.53
2023-04-28T11:41:07.615Z,31.97
2023-04-28T11:45:12.114Z,34.67
2023-04-28T11:49:14.461Z,33.23
2023-04-28T11:57:26.215Z,32.73
2023-04-28T12:01:27.173Z,32.33
2023-04-28T12:05:28.381Z,30.63
2023-04-28T12:09:29.836Z,27.10
2023-04-28T12:13:31.244Z,24.53
2023-04-28T12:17:38.434Z,25.30
2023-04-28T12:21:39.937Z,27.43
2023-04-28T12:25:45.413Z,25.53
2023-04-28T12:29:47.927Z,24.57
2023-04-28T12:33:49.430Z,23.57
2023-04-28T12:37:51.971Z,24.13
2023-04-28T12:41:54.659Z,22.40
2023-04-28T12:45:56.300Z,24.87
2023-04-28T12:49:57.405Z,22.80
2023-04-28T12:53:58.310Z,20.17
2023-04-28T12:57:59.494Z,22.27
2023-04-28T13:02:00.659Z,21.43
2023-04-28T13:06:02.003Z,19.80
2023-04-28T13:10:03.292Z,20.73
2023-04-28T13:14:04.661Z,21.63
2023-04-28T13:18:05.678Z,19.87
2023-04-28T13:22:06.815Z,20.00
2023-04-28T13:26:07.980Z,18.97
2023-04-28T13:30:10.456Z,16.47
2023-04-28T13:34:13.358Z,15.43
2023-04-28T13:38:14.492Z,15.30
2023-04-28T13:42:15.675Z,14.67
2023-04-28T13:46:17.414Z,15.33
2023-04-28T13:50:18.547Z,16.37
2023-04-28T13:54:20.526Z,15.70
2023-04-28T13:58:21.972Z,14.70
2023-04-28T14:02:23.877Z,16.17
2023-04-28T14:06:26.649Z,14.60
2023-04-28T14:10:27.895Z,15.90
2023-04-28T14:14:28.877Z,16.83
2023-04-28T14:18:30.304Z,19.80
2023-04-28T14:22:31.326Z,22.17
2023-04-28T14:26:32.385Z,20.33
2023-04-28T14:30:33.646Z,19.33
2023-04-28T14:34:34.750Z,13.83
2023-04-28T14:42:37.159Z,3.20
2023-04-28T14:46:38.389Z,4.80
2023-04-28T14:50:43.936Z,8.90
2023-04-28T14:54:45.131Z,10.43
2023-04-28T14:58:47.069Z,7.70
2023-04-28T15:02:48.290Z,9.77
2023-04-28T15:06:49.287Z,13.13
2023-04-28T15:10:50.621Z,18.37
2023-04-28T15:14:53.036Z,19.77
2023-04-28T15:18:54.210Z,21.40
2023-04-28T15:22:55.686Z,23.50
2023-04-28T15:26:57.911Z,23.00
2023-04-28T15:30:58.929Z,24.93
2023-04-28T15:35:00.982Z,25.93
2023-04-28T15:39:02.658Z,24.80
2023-04-28T15:43:03.878Z,24.53
2023-04-28T15:47:05.080Z,24.00
2023-04-28T15:51:06.943Z,23.10
2023-04-28T15:55:08.925Z,24.63
2023-04-28T15:59:11.860Z,25.37
2023-04-28T16:03:13.051Z,25.37
2023-04-28T16:07:14.103Z,26.90
2023-04-28T16:11:17.124Z,25.93
2023-04-28T16:15:18.472Z,25.83
2023-04-28T16:19:19.439Z,28.03
2023-04-28T16:23:20.606Z,27.83
2023-04-28T16:27:21.779Z,27.07
2023-04-28T16:31:22.965Z,24.37
2023-04-28T16:35:25.033Z,27.03
2023-04-28T16:39:26.313Z,23.53
2023-04-28T16:43:27.478Z,20.03
2023-04-28T16:47:30.468Z,20.53
2023-04-28T16:51:32.486Z,17.17
2023-04-28T16:55:36.746Z,14.97
2023-04-28T16:59:37.740Z,15.67
2023-04-28T17:03:40.927Z,15.77
2023-04-28T17:07:42.178Z,15.50
2023-04-28T17:11:43.285Z,14.83
2023-04-28T17:15:44.322Z,14.83
2023-04-28T17:19:45.319Z,12.23
2023-04-28T17:23:46.660Z,12.27
2023-04-28T17:27:47.756Z,10.87
2023-04-28T17:31:48.948Z,11.17
2023-04-28T17:35:49.896Z,11.53
2023-04-28T17:39:51.594Z,9.73
2023-04-28T17:43:52.838Z,10.57
2023-04-28T17:47:55.547Z,10.33
2023-04-28T17:51:56.477Z,10.27
2023-04-28T17:56:02.012Z,10.20
2023-04-28T18:00:05.732Z,10.53
2023-04-28T18:04:07.234Z,9.67
2023-04-28T18:08:08.664Z,10.83
2023-04-28T18:12:09.595Z,9.50
2023-04-28T18:16:12.606Z,11.20
2023-04-28T18:20:13.681Z,14.57
2023-04-28T18:24:14.893Z,15.90
2023-04-28T18:28:16.004Z,11.83
2023-04-28T18:32:17.515Z,14.30
2023-04-28T18:36:18.562Z,56.77
2023-04-28T18:40:20.155Z,22.67
2023-04-28T18:44:21.277Z,14.30
2023-04-28T18:48:22.989Z,15.67
2023-04-28T18:52:24.091Z,9.90
2023-04-28T18:56:25.168Z,7.93
2023-04-28T19:00:26.672Z,8.50
2023-04-28T19:04:30.231Z,11.43
2023-04-28T19:08:31.969Z,11.20
2023-04-28T19:12:32.930Z,12.90
2023-04-28T19:16:34.197Z,13.13
2023-04-28T19:20:35.111Z,12.73
2023-04-28T19:24:36.655Z,12.00
2023-04-28T19:28:37.776Z,11.93
2023-04-28T19:32:41.492Z,14.90
2023-04-28T19:36:43.386Z,13.17
2023-04-28T19:40:44.514Z,17.43
2023-04-28T19:44:46.611Z,14.30
2023-04-28T19:48:47.586Z,9.93
2023-04-28T19:52:49.358Z,9.33
2023-04-28T19:56:50.757Z,10.87
2023-04-28T20:00:52.909Z,10.83
2023-04-28T20:04:55.838Z,11.67
2023-04-28T20:08:56.817Z,11.77
2023-04-28T20:12:57.938Z,20.60
2023-04-28T20:17:00.393Z,15.43
2023-04-28T20:25:11.626Z,9.40
2023-04-28T20:29:12.629Z,9.30
2023-04-28T20:33:13.958Z,8.10
2023-04-28T20:37:15.121Z,7.50
2023-04-28T20:41:16.219Z,7.80
2023-04-28T20:45:17.912Z,7.50
2023-04-28T20:49:18.876Z,8.37
2023-04-28T20:53:20.013Z,6.20
2023-04-28T20:57:21.074Z,6.03
2023-04-28T21:01:22.223Z,6.37
2023-04-28T21:05:23.482Z,5.63
2023-04-28T21:09:24.542Z,5.70
2023-04-28T21:13:25.625Z,6.03
2023-04-28T21:17:26.591Z,6.63
2023-04-28T21:21:28.339Z,7.73
2023-04-28T21:25:29.612Z,7.53
2023-04-28T21:29:30.557Z,8.30
2023-04-28T21:33:31.988Z,8.77
2023-04-28T21:37:33.144Z,7.67
2023-04-28T21:41:34.154Z,6.50
2023-04-28T21:45:35.460Z,7.60
2023-04-28T21:49:36.881Z,6.90
2023-04-28T21:53:37.858Z,5.73
2023-04-28T21:57:38.997Z,6.33
2023-04-28T22:01:40.909Z,6.23
2023-04-28T22:05:42.915Z,5.70
2023-04-28T22:09:43.909Z,6.90
2023-04-28T22:13:45.113Z,6.23
2023-04-28T22:17:46.361Z,6.13
2023-04-28T22:21:47.671Z,6.47
2023-04-28T22:25:49.447Z,6.07
2023-04-28T22:29:50.943Z,6.30
2023-04-28T22:33:52.077Z,6.70
2023-04-28T22:37:53.263Z,6.53
2023-04-28T22:41:55.149Z,9.47
2023-04-28T22:45:59.296Z,7.73
2023-04-28T22:50:00.390Z,7.37
2023-04-28T22:54:02.152Z,6.73
2023-04-28T22:58:03.104Z,6.57
2023-04-28T23:02:04.227Z,6.07
2023-04-28T23:06:05.509Z,5.40
2023-04-28T23:10:07.686Z,5.60
2023-04-28T23:14:08.773Z,6.07
2023-04-28T23:18:10.134Z,6.17
2023-04-28T23:22:11.110Z,5.73
2023-04-28T23:26:12.144Z,5.80
2023-04-28T23:30:13.149Z,5.47
2023-04-28T23:34:14.104Z,6.10
2023-04-28T23:38:15.326Z,5.50
2023-04-28T23:42:16.960Z,6.13
2023-04-28T23:46:18.410Z,6.60
2023-04-28T23:50:19.352Z,6.50
2023-04-28T23:54:20.487Z,6.47
2023-04-28T23:58:22.010Z,6.83
